Time;durP1;ratioP1;P1;durP2;ratioP2;P2;SDS_P1;SDS_P2;PMS_P1;PMS_P2;Temp;Humidity;BMP_temperature;BMP_pressure;BME280_temperature;BME280_humidity;BME280_pressure;Samples;Min_cycle;Max_cycle;Signal;HPM_P1;HPM_P2
2022/06/11 00:00:09;;;;;;;1.20;1.03;;;25.90;70.90;;;;;;5093802;28;20444;-85
2022/06/11 00:02:36;;;;;;;1.10;1.00;;;25.90;70.80;;;;;;5093942;28;20436;-85
2022/06/11 00:05:06;;;;;;;1.20;1.00;;;25.90;70.90;;;;;;5093306;28;20527;-85
2022/06/11 00:07:34;;;;;;;1.23;1.13;;;25.90;70.80;;;;;;5093604;28;20854;-86
2022/06/11 00:10:01;;;;;;;1.10;1.00;;;25.90;70.80;;;;;;5093458;28;20648;-85
2022/06/11 00:12:28;;;;;;;1.10;1.00;;;25.90;70.80;;;;;;5093468;28;20471;-85
2022/06/11 00:14:55;;;;;;;1.20;0.80;;;25.90;70.80;;;;;;5093754;28;20452;-85
2022/06/11 00:17:24;;;;;;;1.10;1.00;;;25.90;71.70;;;;;;5093426;28;20447;-85
2022/06/11 00:19:52;;;;;;;1.30;0.90;;;25.90;70.80;;;;;;5093540;28;20535;-84
2022/06/11 00:22:22;;;;;;;1.53;1.20;;;25.90;70.80;;;;;;5093569;28;20800;-85
2022/06/11 00:24:50;;;;;;;1.50;1.00;;;25.90;70.80;;;;;;5093363;28;20826;-85
2022/06/11 00:27:18;;;;;;;1.27;1.17;;;25.90;70.80;;;;;;5093082;28;20527;-84
2022/06/11 00:29:46;;;;;;;1.20;1.10;;;25.90;70.80;;;;;;5093422;28;20859;-85
2022/06/11 00:32:15;;;;;;;1.10;1.00;;;25.90;71.70;;;;;;5093545;28;20539;-85
2022/06/11 00:34:43;;;;;;;1.30;1.20;;;25.90;70.90;;;;;;5093256;28;20450;-85
2022/06/11 00:37:13;;;;;;;1.40;1.17;;;25.90;70.80;;;;;;5093556;28;20471;-85
2022/06/11 00:39:42;;;;;;;1.20;1.00;;;25.90;70.80;;;;;;5093510;28;20818;-85
2022/06/11 00:42:15;;;;;;;1.10;1.00;;;25.90;70.80;;;;;;5093092;28;20563;-86
2022/06/11 00:44:43;;;;;;;1.33;1.00;;;25.90;70.80;;;;;;5093233;28;20523;-85
2022/06/11 00:47:17;;;;;;;1.60;1.23;;;25.90;70.90;;;;;;5093289;28;20444;-86
2022/06/11 00:49:49;;;;;;;1.10;1.00;;;25.90;70.90;;;;;;5095437;28;20431;-86
2022/06/11 00:52:25;;;;;;;1.20;1.03;;;25.90;70.90;;;;;;5079331;28;20490;-85
2022/06/11 00:55:01;;;;;;;1.20;1.00;;;25.90;70.90;;;;;;5096724;28;20461;-84
2022/06/11 00:57:31;;;;;;;1.80;1.10;;;25.90;70.90;;;;;;5096863;28;20812;-85
2022/06/11 01:00:04;;;;;;;1.30;1.10;;;25.90;70.90;;;;;;5097052;28;20440;-84
2022/06/11 01:02:31;;;;;;;1.00;0.90;;;25.90;70.90;;;;;;5097113;28;20526;-86
2022/06/11 01:05:01;;;;;;;1.10;1.00;;;25.90;71.00;;;;;;5096802;28;20438;-84
2022/06/11 01:08:08;;;;;;;1.10;0.97;;;25.90;70.90;;;;;;5078436;28;20436;-86
2022/06/11 01:11:01;;;;;;;1.30;1.20;;;25.90;71.00;;;;;;5079398;28;20467;-86
2022/06/11 01:13:35;;;;;;;1.13;0.97;;;25.90;70.90;;;;;;5096417;28;20914;-85
2022/06/11 01:16:05;;;;;;;1.00;0.90;;;25.80;71.00;;;;;;5076348;28;20440;-85
2022/06/11 01:18:45;;;;;;;1.10;1.00;;;25.90;71.00;;;;;;5076176;28;21026;-86
2022/06/11 01:21:22;;;;;;;1.40;1.00;;;25.90;71.00;;;;;;5076308;28;20468;-86
2022/06/11 01:24:24;;;;;;;1.67;1.00;;;25.90;71.10;;;;;;5075922;28;20468;-84
2022/06/11 01:27:25;;;;;;;1.00;0.80;;;25.90;71.00;;;;;;5076233;28;20531;-85
2022/06/11 01:29:57;;;;;;;1.00;0.73;;;25.90;71.10;;;;;;5075852;28;20429;-86
2022/06/11 01:32:34;;;;;;;1.20;1.00;;;25.90;71.20;;;;;;5095658;28;20433;-86
2022/06/11 01:35:24;;;;;;;0.90;0.70;;;25.90;71.10;;;;;;5096549;28;20775;-86
2022/06/11 01:37:57;;;;;;;1.40;1.00;;;25.90;71.10;;;;;;5096274;28;20455;-85
2022/06/11 01:40:35;;;;;;;1.00;0.90;;;25.90;71.20;;;;;;5096412;28;20555;-85
2022/06/11 01:43:13;;;;;;;1.20;1.10;;;25.90;71.10;;;;;;5096380;28;20432;-85
2022/06/11 01:45:42;;;;;;;1.13;1.03;;;25.80;71.10;;;;;;5096344;28;20482;-86
2022/06/11 01:48:18;;;;;;;1.30;0.90;;;25.90;71.20;;;;;;5095734;28;20553;-85
2022/06/11 01:50:51;;;;;;;1.30;1.10;;;25.80;71.00;;;;;;5096169;28;20479;-86
2022/06/11 01:53:39;;;;;;;1.50;1.03;;;25.80;71.00;;;;;;5078023;28;20883;-86
2022/06/11 01:56:30;;;;;;;1.10;0.90;;;25.90;71.10;;;;;;5079627;28;20780;-85
2022/06/11 01:59:18;;;;;;;1.10;0.97;;;25.90;71.10;;;;;;5096023;28;20519;-85
2022/06/11 02:01:58;;;;;;;0.93;0.77;;;25.80;71.00;;;;;;5096005;28;20519;-86
2022/06/11 02:04:39;;;;;;;1.00;0.90;;;25.90;71.20;;;;;;5095957;28;20511;-84
2022/06/11 02:07:14;;;;;;;1.00;0.90;;;25.80;71.10;;;;;;5095778;28;20547;-84
2022/06/11 02:09:51;;;;;;;1.10;1.00;;;25.80;71.10;;;;;;5095564;28;20562;-85
2022/06/11 02:12:24;;;;;;;1.30;1.00;;;25.90;71.20;;;;;;5095620;28;20442;-85
2022/06/11 02:14:57;;;;;;;1.17;0.93;;;25.80;71.10;;;;;;5095680;28;20432;-84
2022/06/11 02:17:29;;;;;;;1.10;1.00;;;25.80;71.10;;;;;;5095448;28;20943;-84
2022/06/11 02:20:00;;;;;;;1.27;1.00;;;25.80;71.10;;;;;;5077478;28;20953;-84
2022/06/11 02:22:33;;;;;;;1.10;0.93;;;25.80;71.10;;;;;;5095246;28;20982;-85
2022/06/11 02:25:09;;;;;;;1.33;1.10;;;25.80;71.20;;;;;;5057048;28;20551;-86
2022/06/11 02:27:40;;;;;;;1.10;0.90;;;25.90;71.20;;;;;;5092680;28;20467;-85
2022/06/11 02:30:11;;;;;;;1.03;0.90;;;25.80;71.10;;;;;;5095050;28;20515;-84
2022/06/11 02:32:40;;;;;;;1.00;0.90;;;25.80;71.10;;;;;;5094998;28;20448;-85
2022/06/11 02:35:11;;;;;;;1.13;1.00;;;25.80;71.10;;;;;;5077024;28;20498;-85
2022/06/11 02:37:41;;;;;;;1.00;0.90;;;25.80;71.10;;;;;;5095136;28;20541;-85
2022/06/11 02:40:13;;;;;;;1.00;0.90;;;25.80;71.10;;;;;;5094717;28;20470;-86
2022/06/11 02:42:40;;;;;;;0.93;0.83;;;25.80;71.10;;;;;;5094816;28;20531;-85
2022/06/11 02:45:10;;;;;;;1.20;0.97;;;25.80;71.10;;;;;;5094827;28;20535;-85
2022/06/11 02:47:39;;;;;;;1.20;1.10;;;25.80;71.10;;;;;;5095095;28;20487;-85
2022/06/11 02:50:07;;;;;;;0.90;0.80;;;25.80;71.10;;;;;;5094804;28;20829;-86
2022/06/11 02:52:34;;;;;;;1.20;1.00;;;25.80;71.10;;;;;;5095057;28;20839;-85
2022/06/11 02:55:02;;;;;;;1.00;0.80;;;25.80;71.10;;;;;;5094535;28;20448;-84
2022/06/11 02:57:32;;;;;;;1.10;1.00;;;25.80;72.00;;;;;;5094864;28;20443;-85
2022/06/11 02:59:59;;;;;;;1.30;1.20;;;25.80;71.10;;;;;;5094769;28;20440;-84
2022/06/11 03:02:27;;;;;;;1.30;1.00;;;25.80;71.10;;;;;;5094873;28;20444;-85
2022/06/11 03:04:56;;;;;;;1.07;0.97;;;25.80;71.10;;;;;;5094540;28;20539;-84
2022/06/11 03:07:23;;;;;;;1.20;1.10;;;25.80;71.00;;;;;;5094386;28;21024;-86
2022/06/11 03:09:50;;;;;;;1.40;1.10;;;25.80;71.10;;;;;;5094296;28;21004;-85
2022/06/11 03:12:17;;;;;;;1.10;1.00;;;25.80;71.00;;;;;;5094028;28;20536;-86
2022/06/11 03:14:45;;;;;;;1.10;1.00;;;25.80;71.00;;;;;;5094253;28;20456;-86
2022/06/11 03:17:15;;;;;;;1.13;1.03;;;25.80;71.10;;;;;;5094256;28;20440;-86
2022/06/11 03:19:43;;;;;;;1.00;0.90;;;25.80;70.90;;;;;;5094179;28;20436;-86
2022/06/11 03:22:11;;;;;;;1.10;1.00;;;25.80;70.90;;;;;;5094284;28;20994;-85
2022/06/11 03:24:38;;;;;;;1.10;1.00;;;25.80;70.90;;;;;;5093820;28;20558;-85
2022/06/11 03:27:06;;;;;;;1.20;1.10;;;25.80;70.90;;;;;;5094251;28;20883;-86
2022/06/11 03:29:34;;;;;;;0.97;0.87;;;25.80;70.90;;;;;;5094262;28;20515;-86
2022/06/11 03:32:01;;;;;;;0.93;0.80;;;25.80;70.90;;;;;;5094351;28;20527;-85
2022/06/11 03:34:28;;;;;;;1.10;0.90;;;25.80;70.90;;;;;;5093964;28;20539;-85
2022/06/11 03:36:55;;;;;;;1.00;0.80;;;25.80;70.90;;;;;;5094147;28;20491;-85
2022/06/11 03:39:24;;;;;;;1.37;1.13;;;25.80;70.90;;;;;;5094067;28;20468;-84
2022/06/11 03:41:53;;;;;;;1.20;1.00;;;25.80;70.90;;;;;;5093835;28;20440;-86
2022/06/11 03:44:20;;;;;;;2.27;0.90;;;25.80;70.90;;;;;;5094086;28;20436;-86
2022/06/11 03:46:48;;;;;;;1.93;1.10;;;25.80;70.80;;;;;;5094008;28;20498;-85
2022/06/11 03:49:16;;;;;;;1.00;0.90;;;25.80;70.80;;;;;;5093732;28;20483;-86
2022/06/11 03:51:43;;;;;;;1.20;0.97;;;25.80;70.70;;;;;;5093679;28;20447;-85
2022/06/11 03:54:10;;;;;;;1.27;1.10;;;25.80;70.70;;;;;;5093650;28;20535;-86
2022/06/11 03:56:40;;;;;;;1.00;0.90;;;25.80;70.70;;;;;;5093988;28;20444;-85
2022/06/11 03:59:08;;;;;;;1.10;0.93;;;25.80;70.70;;;;;;5093804;28;20877;-85
2022/06/11 04:01:35;;;;;;;1.10;0.90;;;25.80;70.70;;;;;;5093766;28;20475;-86
2022/06/11 04:04:06;;;;;;;1.00;0.90;;;25.80;70.70;;;;;;5093700;28;20476;-85
2022/06/11 04:06:37;;;;;;;1.20;1.00;;;25.80;70.60;;;;;;5093714;28;20472;-86
2022/06/11 04:09:08;;;;;;;1.00;0.83;;;25.80;71.40;;;;;;5093299;28;21007;-85
2022/06/11 04:11:35;;;;;;;1.30;0.80;;;25.90;70.70;;;;;;5093670;28;20432;-86
2022/06/11 04:14:03;;;;;;;0.90;0.80;;;25.80;70.60;;;;;;5093404;28;20462;-86
2022/06/11 04:16:36;;;;;;;1.10;0.90;;;25.90;71.50;;;;;;5093355;28;20947;-85
2022/06/11 04:19:06;;;;;;;1.10;1.00;;;25.80;70.60;;;;;;5093366;28;20447;-85
2022/06/11 04:21:35;;;;;;;1.10;0.97;;;25.80;70.60;;;;;;5093340;28;20442;-84
2022/06/11 04:24:04;;;;;;;1.20;1.10;;;25.80;70.60;;;;;;5094164;28;20471;-84
2022/06/11 04:26:33;;;;;;;1.33;1.10;;;25.80;70.60;;;;;;5097956;28;20468;-85
2022/06/11 04:29:02;;;;;;;1.00;0.90;;;25.80;70.60;;;;;;5079460;28;20478;-84
2022/06/11 04:31:33;;;;;;;1.10;0.93;;;25.80;70.60;;;;;;5097682;28;20836;-84
2022/06/11 04:34:00;;;;;;;1.10;1.00;;;25.80;70.60;;;;;;5090098;28;20479;-84
2022/06/11 04:36:30;;;;;;;1.00;0.90;;;25.80;70.60;;;;;;5097568;28;20538;-84
2022/06/11 04:38:57;;;;;;;1.10;0.90;;;25.80;70.60;;;;;;5097339;28;20887;-84
2022/06/11 04:41:25;;;;;;;1.00;0.80;;;25.80;70.60;;;;;;5097536;28;20531;-86
2022/06/11 04:43:52;;;;;;;1.80;1.10;;;25.80;70.60;;;;;;5097313;28;20469;-84
2022/06/11 04:46:19;;;;;;;1.10;0.90;;;25.80;70.70;;;;;;5097398;28;20527;-84
2022/06/11 04:48:47;;;;;;;1.10;1.00;;;25.80;70.60;;;;;;5079476;28;20951;-83
2022/06/11 04:51:15;;;;;;;0.90;0.80;;;25.80;70.60;;;;;;5097146;28;20535;-84
2022/06/11 04:53:44;;;;;;;1.40;1.00;;;25.80;70.60;;;;;;5079355;28;20443;-84
2022/06/11 04:56:12;;;;;;;1.30;1.00;;;25.80;70.70;;;;;;5097221;28;20440;-85
2022/06/11 04:58:39;;;;;;;1.13;1.03;;;25.80;70.80;;;;;;5096978;28;20516;-84
2022/06/11 05:01:07;;;;;;;1.00;0.90;;;25.80;70.70;;;;;;5096885;28;20531;-84
2022/06/11 05:03:34;;;;;;;1.10;1.00;;;25.80;70.70;;;;;;5097028;28;20886;-84
2022/06/11 05:06:03;;;;;;;1.20;1.00;;;25.80;70.80;;;;;;5096901;28;20463;-84
2022/06/11 05:08:30;;;;;;;1.20;0.90;;;25.80;70.80;;;;;;5096861;28;20435;-83
2022/06/11 05:10:57;;;;;;;1.20;1.10;;;25.80;70.80;;;;;;5097146;28;20518;-84
2022/06/11 05:13:24;;;;;;;1.00;0.90;;;25.80;71.50;;;;;;5096833;28;20476;-84
2022/06/11 05:15:53;;;;;;;1.00;0.90;;;25.80;70.70;;;;;;5096820;28;20782;-84
2022/06/11 05:18:22;;;;;;;1.00;0.90;;;25.80;70.70;;;;;;5096785;28;20547;-84
2022/06/11 05:20:49;;;;;;;1.10;0.90;;;25.80;70.70;;;;;;5096394;28;20515;-85
2022/06/11 05:23:18;;;;;;;1.00;0.90;;;25.80;70.70;;;;;;5096259;28;20443;-84
2022/06/11 05:25:46;;;;;;;1.07;0.80;;;25.80;71.60;;;;;;5096374;28;20442;-84
2022/06/11 05:28:16;;;;;;;1.00;0.90;;;25.80;70.70;;;;;;5078453;28;20479;-85
2022/06/11 05:30:44;;;;;;;1.10;0.90;;;25.80;70.70;;;;;;5096305;28;21039;-83
2022/06/11 05:33:12;;;;;;;1.03;0.93;;;25.80;70.70;;;;;;5096067;28;20982;-84
2022/06/11 05:35:40;;;;;;;1.13;1.00;;;25.80;70.70;;;;;;5075724;28;20488;-83
2022/06/11 05:38:09;;;;;;;1.10;0.83;;;25.80;70.70;;;;;;5076182;28;20519;-84
2022/06/11 05:40:41;;;;;;;0.90;0.73;;;25.80;70.70;;;;;;5075849;28;20465;-85
2022/06/11 05:43:08;;;;;;;1.03;0.87;;;25.80;70.70;;;;;;5075964;28;20433;-84
2022/06/11 05:45:41;;;;;;;1.10;1.00;;;25.80;71.70;;;;;;5076291;28;20439;-85
2022/06/11 05:48:10;;;;;;;1.00;0.90;;;25.80;70.80;;;;;;5075712;28;20535;-84
2022/06/11 05:50:40;;;;;;;1.30;1.20;;;25.80;70.70;;;;;;5075595;28;20516;-83
2022/06/11 05:53:09;;;;;;;1.00;0.90;;;25.80;70.70;;;;;;5076100;28;20480;-84
2022/06/11 05:55:40;;;;;;;1.00;0.90;;;25.80;70.70;;;;;;5075849;28;20524;-85
2022/06/11 05:58:11;;;;;;;1.00;0.90;;;25.80;70.70;;;;;;5078779;28;20448;-84
2022/06/11 06:00:39;;;;;;;1.17;1.00;;;25.80;70.70;;;;;;5096136;28;20965;-84
2022/06/11 06:03:06;;;;;;;1.00;0.90;;;25.80;70.80;;;;;;5095832;28;20451;-86
2022/06/11 06:05:34;;;;;;;1.10;0.80;;;25.80;70.80;;;;;;5095730;28;20471;-85
2022/06/11 06:08:01;;;;;;;1.03;0.90;;;25.80;70.80;;;;;;5095562;28;20873;-85
2022/06/11 06:10:29;;;;;;;1.10;0.80;;;25.80;70.80;;;;;;5095302;28;20579;-85
2022/06/11 06:12:57;;;;;;;1.17;0.93;;;25.80;70.70;;;;;;5095742;28;20526;-85
2022/06/11 06:15:27;;;;;;;1.10;0.80;;;25.80;70.80;;;;;;5095721;28;20530;-85
2022/06/11 06:17:55;;;;;;;1.10;1.00;;;25.80;70.80;;;;;;5095492;28;20477;-85
2022/06/11 06:20:24;;;;;;;1.40;1.30;;;25.80;70.70;;;;;;5095226;28;20432;-85
2022/06/11 06:22:51;;;;;;;1.00;0.87;;;25.80;70.70;;;;;;5095355;28;20443;-85
2022/06/11 06:25:22;;;;;;;1.00;0.90;;;25.80;70.70;;;;;;5095084;28;20562;-85
2022/06/11 06:27:49;;;;;;;1.00;0.80;;;25.80;70.80;;;;;;5095231;28;20518;-85
2022/06/11 06:30:17;;;;;;;1.20;1.00;;;25.80;70.80;;;;;;5095254;28;20534;-85
2022/06/11 06:32:44;;;;;;;1.00;0.90;;;25.80;70.80;;;;;;5095176;28;20468;-85
2022/06/11 06:35:11;;;;;;;1.10;1.00;;;25.80;70.80;;;;;;5095324;28;20531;-85
2022/06/11 06:37:38;;;;;;;1.60;0.93;;;25.80;70.80;;;;;;5094870;28;20523;-85
2022/06/11 06:40:06;;;;;;;1.13;1.00;;;25.80;70.80;;;;;;5094959;28;20542;-85
2022/06/11 06:42:33;;;;;;;1.00;0.73;;;25.80;70.80;;;;;;5095300;28;20866;-85
2022/06/11 06:45:00;;;;;;;1.20;1.00;;;25.80;70.80;;;;;;5094871;28;20474;-85
2022/06/11 06:47:28;;;;;;;1.10;1.00;;;25.80;70.80;;;;;;5094353;28;20505;-84
2022/06/11 06:49:55;;;;;;;1.43;1.33;;;25.80;70.90;;;;;;5094501;28;20551;-84
2022/06/11 06:52:23;;;;;;;0.90;0.80;;;25.80;70.90;;;;;;5094959;28;20444;-85
2022/06/11 06:54:50;;;;;;;1.07;0.97;;;25.80;70.90;;;;;;5094786;28;20444;-84
2022/06/11 06:57:17;;;;;;;1.20;1.07;;;25.80;71.00;;;;;;5094634;28;20923;-85
2022/06/11 06:59:43;;;;;;;1.10;1.00;;;25.80;71.00;;;;;;5094665;28;20432;-85
2022/06/11 07:02:11;;;;;;;0.93;0.80;;;25.80;71.10;;;;;;5094789;28;20542;-85
2022/06/11 07:04:39;;;;;;;0.97;0.87;;;25.80;71.10;;;;;;5094812;28;20864;-85
2022/06/11 07:07:07;;;;;;;1.10;1.00;;;25.80;71.10;;;;;;5094668;28;20509;-85
2022/06/11 07:09:34;;;;;;;1.00;0.87;;;25.80;71.10;;;;;;5094106;28;20511;-92
2022/06/11 07:12:01;;;;;;;2.60;1.00;;;25.80;71.20;;;;;;5095092;28;20444;-91
2022/06/11 07:14:28;;;;;;;3.83;1.20;;;25.80;71.50;;;;;;5095138;28;20474;-91
2022/06/11 07:16:58;;;;;;;5.03;0.93;;;25.80;71.90;;;;;;5095342;28;20495;-94
2022/06/11 07:19:30;;;;;;;1.37;1.10;;;25.70;71.80;;;;;;5095045;28;20873;-93
2022/06/11 07:22:03;;;;;;;3.07;1.83;;;25.80;71.80;;;;;;5095198;28;20436;-93
2022/06/11 07:24:33;;;;;;;2.20;1.80;;;25.80;71.70;;;;;;5094855;28;21014;-94
2022/06/11 07:27:05;;;;;;;2.90;2.00;;;25.80;72.20;;;;;;5087556;28;20464;-95
2022/06/11 07:29:36;;;;;;;3.43;1.80;;;25.80;72.90;;;;;;5095254;28;20423;-89
2022/06/11 07:32:07;;;;;;;8.13;2.00;;;25.80;72.80;;;;;;5094877;28;20946;-94
2022/06/11 07:34:35;;;;;;;2.70;1.43;;;25.80;72.80;;;;;;5095450;28;20535;-93
2022/06/11 07:37:04;;;;;;;2.17;1.43;;;25.80;72.80;;;;;;5094587;28;20436;-93
2022/06/11 07:39:31;;;;;;;1.83;1.30;;;25.80;72.40;;;;;;5094060;28;20521;-93
2022/06/11 07:41:58;;;;;;;3.83;1.40;;;25.90;72.20;;;;;;5094089;28;20472;-92
2022/06/11 07:44:25;;;;;;;3.90;1.57;;;25.80;72.30;;;;;;5094274;28;20930;-93
2022/06/11 07:46:53;;;;;;;5.23;1.90;;;25.90;72.30;;;;;;5094199;28;20511;-92
2022/06/11 07:49:20;;;;;;;2.80;1.77;;;25.90;72.50;;;;;;5094216;28;20475;-92
2022/06/11 07:51:47;;;;;;;5.13;1.97;;;25.90;72.20;;;;;;5094439;28;20494;-92
2022/06/11 07:54:15;;;;;;;2.43;1.53;;;25.90;72.30;;;;;;5094477;28;20444;-92
2022/06/11 07:56:42;;;;;;;2.53;1.50;;;25.90;72.30;;;;;;5094097;28;20446;-92
2022/06/11 07:59:10;;;;;;;2.10;1.53;;;25.90;72.20;;;;;;5093652;28;20993;-92
2022/06/11 08:01:37;;;;;;;2.80;1.40;;;25.90;72.10;;;;;;5093841;28;20542;-92
2022/06/11 08:04:04;;;;;;;2.77;1.37;;;25.90;72.00;;;;;;5093665;28;20497;-92
2022/06/11 08:06:31;;;;;;;3.60;1.70;;;25.90;71.90;;;;;;5093782;28;20452;-92
2022/06/11 08:08:58;;;;;;;1.77;1.50;;;26.00;72.00;;;;;;5093443;28;20449;-91
2022/06/11 08:11:27;;;;;;;6.80;1.70;;;25.90;71.90;;;;;;5093426;28;20511;-92
2022/06/11 08:13:54;;;;;;;2.53;1.83;;;26.00;72.10;;;;;;5093527;28;20535;-92
2022/06/11 08:16:21;;;;;;;2.77;1.80;;;26.00;72.80;;;;;;5093974;28;20523;-92
2022/06/11 08:18:48;;;;;;;2.13;1.50;;;26.00;71.80;;;;;;5093922;28;20531;-92
2022/06/11 08:21:15;;;;;;;4.20;1.93;;;25.90;72.00;;;;;;5093740;28;20554;-93
2022/06/11 08:23:42;;;;;;;2.17;1.70;;;26.00;72.00;;;;;;5093996;28;20474;-90
2022/06/11 08:26:09;;;;;;;1.90;1.80;;;26.00;72.30;;;;;;5093994;28;20440;-92
2022/06/11 08:28:38;;;;;;;4.27;1.90;;;26.00;72.20;;;;;;5093619;28;20478;-91
2022/06/11 08:31:06;;;;;;;2.67;1.80;;;26.00;73.10;;;;;;5095269;28;20483;-95
2022/06/11 08:33:33;;;;;;;2.23;1.70;;;26.00;72.10;;;;;;5097460;28;20476;-91
2022/06/11 08:36:00;;;;;;;2.03;1.80;;;26.00;72.10;;;;;;5093435;28;20560;-89
2022/06/11 08:38:27;;;;;;;2.27;1.63;;;26.00;72.00;;;;;;5092853;28;20527;-89
2022/06/11 08:40:55;;;;;;;2.80;1.80;;;26.00;71.90;;;;;;5094279;28;20499;-95
2022/06/11 08:43:26;;;;;;;4.10;1.90;;;26.00;72.00;;;;;;5094493;28;20471;-95
2022/06/11 08:45:57;;;;;;;3.63;1.70;;;26.00;72.20;;;;;;5089631;28;20437;-81
2022/06/11 09:00:36;;;;;;;1.73;1.63;;;26.00;71.50;;;;;;5110780;27;21070;-87
2022/06/11 09:03:17;;;;;;;4.83;1.90;;;26.50;71.30;;;;;;5110248;28;20471;-87
2022/06/11 09:06:02;;;;;;;2.60;1.70;;;26.40;71.50;;;;;;5109519;28;20511;-87
2022/06/11 09:08:45;;;;;;;2.10;1.90;;;26.30;71.70;;;;;;5104328;28;20522;-87
2022/06/11 09:11:26;;;;;;;1.53;1.43;;;26.20;71.80;;;;;;5107253;28;20530;-87
2022/06/11 09:14:18;;;;;;;2.03;1.67;;;26.20;72.10;;;;;;5108960;28;20467;-87
2022/06/11 09:17:01;;;;;;;2.10;1.90;;;26.20;72.20;;;;;;5090358;28;20479;-85
2022/06/11 09:19:42;;;;;;;1.87;1.67;;;26.10;72.30;;;;;;5107982;28;20558;-87
2022/06/11 09:22:23;;;;;;;3.10;2.20;;;26.10;72.30;;;;;;5111301;28;20514;-87
2022/06/11 09:25:10;;;;;;;1.70;1.60;;;26.10;72.30;;;;;;5111134;28;20483;-86
2022/06/11 09:27:40;;;;;;;1.73;1.33;;;26.10;72.30;;;;;;5111189;28;20466;-87
2022/06/11 09:30:10;;;;;;;1.70;1.60;;;26.10;72.30;;;;;;5111370;28;20530;-87
2022/06/11 09:32:46;;;;;;;1.50;1.40;;;26.10;72.30;;;;;;5111178;28;20530;-87
2022/06/11 09:35:17;;;;;;;2.60;1.50;;;26.10;73.20;;;;;;5111197;28;20853;-87
2022/06/11 09:37:56;;;;;;;3.40;1.70;;;26.10;72.20;;;;;;5111113;28;20463;-87
2022/06/11 09:40:34;;;;;;;2.03;1.73;;;26.10;72.30;;;;;;5110344;28;20854;-86
2022/06/11 09:43:19;;;;;;;2.60;1.43;;;26.10;72.30;;;;;;5090239;28;20533;-86
2022/06/11 09:45:54;;;;;;;2.43;1.53;;;26.10;72.30;;;;;;5090072;28;20432;-87
2022/06/11 09:48:38;;;;;;;1.90;1.67;;;26.10;72.40;;;;;;5089944;28;20993;-87
2022/06/11 09:51:14;;;;;;;1.50;1.40;;;26.10;72.40;;;;;;5090053;28;20484;-87
2022/06/11 09:53:56;;;;;;;3.30;1.93;;;26.10;72.30;;;;;;5090407;28;20543;-86
2022/06/11 09:56:31;;;;;;;2.17;1.70;;;26.10;72.40;;;;;;5089618;28;20440;-88
2022/06/11 09:59:06;;;;;;;2.00;1.60;;;26.10;72.40;;;;;;5089116;28;20502;-87
2022/06/11 10:01:42;;;;;;;2.37;1.70;;;26.10;72.40;;;;;;5075885;28;20512;-87
2022/06/11 10:04:17;;;;;;;2.70;2.07;;;26.10;72.40;;;;;;5076299;28;20861;-88
2022/06/11 10:06:51;;;;;;;3.77;2.00;;;26.10;72.40;;;;;;5076384;28;20503;-88
2022/06/11 10:09:22;;;;;;;2.63;1.83;;;26.10;72.40;;;;;;5076956;28;20940;-86
2022/06/11 10:11:52;;;;;;;1.77;1.67;;;26.20;72.50;;;;;;5076110;28;20863;-87
2022/06/11 10:14:31;;;;;;;1.70;1.60;;;26.20;72.50;;;;;;5075945;28;20476;-86
2022/06/11 10:17:05;;;;;;;1.97;1.60;;;26.20;72.60;;;;;;5076161;28;20519;-88
2022/06/11 10:19:52;;;;;;;1.70;1.60;;;26.10;72.50;;;;;;5075854;28;20583;-85
2022/06/11 10:22:24;;;;;;;1.87;1.70;;;26.20;72.60;;;;;;5075876;28;20488;-85
2022/06/11 10:25:02;;;;;;;2.23;1.50;;;26.20;72.70;;;;;;5075867;28;20468;-86
2022/06/11 10:27:33;;;;;;;1.70;1.60;;;26.20;72.60;;;;;;5075909;28;20464;-82
2022/06/11 10:30:03;;;;;;;2.07;1.97;;;26.20;72.70;;;;;;5075767;28;20433;-82
2022/06/11 10:32:36;;;;;;;2.37;1.87;;;26.20;72.60;;;;;;5075459;28;20527;-82
2022/06/11 10:35:15;;;;;;;2.63;1.97;;;26.20;72.50;;;;;;5075540;28;20439;-82
2022/06/11 10:37:46;;;;;;;3.43;2.07;;;26.20;72.40;;;;;;5075234;28;20513;-82
2022/06/11 10:40:22;;;;;;;3.20;1.80;;;26.20;73.30;;;;;;5075531;28;20571;-82
2022/06/11 10:42:56;;;;;;;2.20;2.00;;;26.30;72.40;;;;;;5075248;28;20447;-82
2022/06/11 10:45:24;;;;;;;1.97;1.87;;;26.40;72.50;;;;;;5075389;28;20440;-82
2022/06/11 10:47:53;;;;;;;2.60;2.17;;;26.40;72.20;;;;;;5075260;28;20535;-82
2022/06/11 10:50:25;;;;;;;2.80;2.37;;;26.40;72.20;;;;;;5075158;28;21000;-82
2022/06/11 10:52:58;;;;;;;3.60;2.33;;;26.40;72.20;;;;;;5075197;28;20463;-83
2022/06/11 10:55:35;;;;;;;2.10;2.00;;;26.40;72.20;;;;;;5075340;28;20523;-81
2022/06/11 10:58:11;;;;;;;2.40;2.20;;;26.40;72.20;;;;;;5075030;28;20523;-82
2022/06/11 11:00:44;;;;;;;2.57;2.37;;;26.40;72.20;;;;;;5075016;28;20483;-82
2022/06/11 11:03:17;;;;;;;2.50;2.23;;;26.50;72.30;;;;;;5074891;28;20433;-84
2022/06/11 11:05:51;;;;;;;2.57;2.37;;;26.40;72.10;;;;;;5075210;28;20535;-82
2022/06/11 11:08:18;;;;;;;2.93;2.63;;;26.50;72.20;;;;;;5074121;28;20536;-82
2022/06/11 11:10:48;;;;;;;3.10;2.37;;;26.50;73.10;;;;;;5073749;28;20524;-81
2022/06/11 11:13:22;;;;;;;4.13;2.60;;;26.50;72.20;;;;;;5073064;28;20520;-82
2022/06/11 11:15:57;;;;;;;2.93;2.73;;;26.50;72.20;;;;;;5074177;28;20434;-81
2022/06/11 11:18:27;;;;;;;3.20;3.00;;;26.50;72.10;;;;;;5074997;28;20447;-91
2022/06/11 11:20:58;;;;;;;3.00;2.70;;;26.50;72.10;;;;;;5075015;28;20916;-87
2022/06/11 11:23:30;;;;;;;3.00;2.70;;;26.50;72.20;;;;;;5074457;28;20566;-82
2022/06/11 11:26:01;;;;;;;2.90;2.70;;;26.50;72.20;;;;;;5074696;28;20802;-82
2022/06/11 11:28:31;;;;;;;2.87;2.67;;;26.50;73.00;;;;;;5074384;28;20989;-83
2022/06/11 11:31:06;;;;;;;3.47;2.70;;;26.50;72.30;;;;;;5074399;28;20460;-83
2022/06/11 11:33:35;;;;;;;2.53;2.10;;;26.50;72.20;;;;;;5073991;28;20479;-83
2022/06/11 11:36:19;;;;;;;3.53;2.17;;;26.50;72.40;;;;;;5073155;28;20441;-83
2022/06/11 11:38:46;;;;;;;2.50;2.40;;;26.50;72.20;;;;;;5074019;28;20512;-82
2022/06/11 11:41:25;;;;;;;3.23;2.30;;;26.50;72.40;;;;;;5074379;28;20483;-83
2022/06/11 11:43:58;;;;;;;2.00;1.80;;;26.50;72.50;;;;;;5073945;28;20444;-82
2022/06/11 11:46:31;;;;;;;3.80;2.33;;;26.50;72.40;;;;;;5073893;28;20445;-83
2022/06/11 11:49:01;;;;;;;2.47;2.20;;;26.50;72.30;;;;;;5073980;28;20532;-82
2022/06/11 11:51:35;;;;;;;2.97;2.70;;;26.50;72.30;;;;;;5073730;28;20476;-82
2022/06/11 11:54:05;;;;;;;2.40;2.20;;;26.50;72.30;;;;;;5073210;28;20519;-82
2022/06/11 11:56:38;;;;;;;3.47;2.57;;;26.50;72.30;;;;;;5073824;28;20845;-83
2022/06/11 11:59:13;;;;;;;4.90;2.50;;;26.50;72.40;;;;;;5072719;28;20485;-82
2022/06/11 12:01:40;;;;;;;2.70;2.50;;;26.50;72.40;;;;;;5073204;28;20494;-82
2022/06/11 12:04:16;;;;;;;3.30;2.50;;;26.50;72.50;;;;;;5073565;28;20532;-82
2022/06/11 12:06:47;;;;;;;2.37;1.93;;;26.50;72.50;;;;;;5073979;28;20445;-82
2022/06/11 12:09:24;;;;;;;3.80;2.50;;;26.50;72.50;;;;;;5073841;28;20445;-86
2022/06/11 12:12:04;;;;;;;5.00;2.90;;;26.50;72.60;;;;;;5073867;28;20476;-85
2022/06/11 12:14:34;;;;;;;7.20;3.10;;;26.50;72.40;;;;;;5073844;28;20441;-86
2022/06/11 12:17:19;;;;;;;4.97;2.57;;;26.50;72.50;;;;;;5073357;28;20524;-82
2022/06/11 12:19:52;;;;;;;3.90;2.70;;;26.50;72.40;;;;;;5072527;28;20903;-85
2022/06/11 12:22:26;;;;;;;5.10;2.93;;;26.50;72.50;;;;;;5072831;28;20945;-85
2022/06/11 12:24:56;;;;;;;3.70;3.07;;;26.50;72.40;;;;;;5073012;28;20459;-82
2022/06/11 12:27:28;;;;;;;3.30;2.80;;;26.60;72.50;;;;;;5072687;28;20536;-82
2022/06/11 12:30:01;;;;;;;3.03;2.83;;;26.60;72.50;;;;;;5072141;28;20839;-83
2022/06/11 12:32:30;;;;;;;5.73;3.40;;;26.60;72.40;;;;;;5073063;28;20449;-81
2022/06/11 12:34:59;;;;;;;5.53;3.07;;;26.60;72.40;;;;;;5072537;28;20441;-81
2022/06/11 12:37:39;;;;;;;3.43;2.70;;;26.60;72.40;;;;;;5073548;28;20448;-87
2022/06/11 12:40:19;;;;;;;10.33;4.57;;;26.60;72.40;;;;;;5072740;28;20491;-83
2022/06/11 12:42:52;;;;;;;4.60;3.30;;;26.60;72.30;;;;;;5071746;28;20459;-82
2022/06/11 12:45:24;;;;;;;12.17;3.70;;;26.60;72.30;;;;;;5079116;28;20927;-84
2022/06/11 12:48:19;;;;;;;12.37;3.43;;;26.70;72.30;;;;;;5083980;28;20518;-83
2022/06/11 12:51:01;;;;;;;7.73;3.77;;;26.70;72.20;;;;;;5082044;28;20508;-83
2022/06/11 12:53:46;;;;;;;4.60;3.30;;;26.70;72.30;;;;;;5082647;28;20425;-83
2022/06/11 12:56:23;;;;;;;10.63;5.70;;;26.80;72.40;;;;;;5086673;28;20447;-82
2022/06/11 12:59:10;;;;;;;14.30;5.50;;;26.80;72.60;;;;;;5078500;28;20879;-86
2022/06/11 13:01:47;;;;;;;7.93;5.20;;;26.80;72.80;;;;;;5073181;28;20441;-84
2022/06/11 13:04:36;;;;;;;6.10;5.13;;;26.70;72.90;;;;;;5078897;28;20977;-83
2022/06/11 13:07:19;;;;;;;5.77;4.60;;;26.80;73.00;;;;;;5073945;28;20437;-85
2022/06/11 13:10:03;;;;;;;6.30;4.13;;;26.80;73.00;;;;;;5072861;28;20794;-85
2022/06/11 13:12:43;;;;;;;5.40;3.97;;;26.70;72.90;;;;;;5073186;28;20852;-87
2022/06/11 13:15:27;;;;;;;4.77;4.27;;;26.70;72.90;;;;;;5082531;28;20509;-83
2022/06/11 13:18:20;;;;;;;7.33;4.23;;;26.70;72.80;;;;;;5079964;28;20461;-84
2022/06/11 13:20:55;;;;;;;9.60;4.40;;;26.70;72.80;;;;;;5081593;28;20515;-84